Time;durP1;ratioP1;P1;durP2;ratioP2;P2;SDS_P1;SDS_P2;PMS_P1;PMS_P2;Temp;Humidity;BMP_temperature;BMP_pressure;BME280_temperature;BME280_humidity;BME280_pressure;Samples;Min_cycle;Max_cycle;Signal;HPM_P1;HPM_P2
2024/01/13 00:00:16;;;;;;;8.82;4.10;;;3.00;99.90;;;;;;5069165;28;20040;-78
2024/01/13 00:02:41;;;;;;;14.52;4.68;;;3.00;99.90;;;;;;5070816;28;20040;-78
2024/01/13 00:05:07;;;;;;;16.08;4.63;;;3.00;99.90;;;;;;5065154;28;20444;-78
2024/01/13 00:07:33;;;;;;;13.95;4.20;;;2.90;99.90;;;;;;5055702;28;20049;-78
2024/01/13 00:09:58;;;;;;;15.35;4.30;;;3.00;99.90;;;;;;5052242;28;20041;-79
2024/01/13 00:12:24;;;;;;;11.68;4.13;;;2.90;99.90;;;;;;5040225;28;20088;-78
2024/01/13 00:14:51;;;;;;;9.88;4.13;;;2.90;99.90;;;;;;5053839;28;20400;-79
2024/01/13 00:17:17;;;;;;;10.55;3.95;;;3.00;99.90;;;;;;5057523;28;20059;-78
2024/01/13 00:19:42;;;;;;;14.60;4.28;;;3.00;99.90;;;;;;5072268;28;20044;-78
2024/01/13 00:22:08;;;;;;;12.02;4.20;;;3.00;99.90;;;;;;5065061;28;20170;-78
2024/01/13 00:24:34;;;;;;;11.40;3.97;;;3.00;99.90;;;;;;5053484;28;20082;-79
2024/01/13 00:26:59;;;;;;;11.00;3.80;;;3.00;99.90;;;;;;5057018;28;20120;-78
2024/01/13 00:29:25;;;;;;;14.02;3.90;;;2.90;99.90;;;;;;5052530;28;20053;-78
2024/01/13 00:31:51;;;;;;;9.48;3.53;;;2.90;99.90;;;;;;5072226;28;20074;-78
2024/01/13 00:34:16;;;;;;;15.13;4.20;;;3.00;99.90;;;;;;5063576;28;20049;-78
2024/01/13 00:36:42;;;;;;;10.70;3.80;;;2.90;99.90;;;;;;5053534;28;20122;-78
2024/01/13 00:39:08;;;;;;;12.88;4.65;;;2.90;99.90;;;;;;5068044;28;20101;-78
2024/01/13 00:41:34;;;;;;;12.32;4.10;;;2.90;99.90;;;;;;5073842;28;20041;-78
2024/01/13 00:44:00;;;;;;;10.30;3.30;;;2.90;99.90;;;;;;5066942;28;20071;-78
2024/01/13 00:46:26;;;;;;;15.07;4.53;;;2.90;99.90;;;;;;5059475;28;20045;-77
2024/01/13 00:48:52;;;;;;;6.57;3.22;;;3.00;99.90;;;;;;5071607;28;20513;-79
2024/01/13 00:51:18;;;;;;;15.27;4.63;;;3.00;99.90;;;;;;5072248;28;20136;-78
2024/01/13 00:53:43;;;;;;;7.22;3.65;;;3.00;99.90;;;;;;5071920;28;20035;-77
2024/01/13 00:56:10;;;;;;;9.43;3.78;;;3.00;99.90;;;;;;5068402;28;20057;-79
2024/01/13 00:58:36;;;;;;;15.90;4.75;;;3.00;99.90;;;;;;5067599;28;20533;-77
2024/01/13 01:01:03;;;;;;;8.35;3.92;;;2.90;99.90;;;;;;5053701;28;20124;-78
2024/01/13 01:03:29;;;;;;;11.32;4.13;;;2.90;99.90;;;;;;5056629;28;20071;-78
2024/01/13 01:05:55;;;;;;;8.63;3.85;;;2.90;99.90;;;;;;5060857;28;20092;-78
2024/01/13 01:08:21;;;;;;;9.88;3.90;;;3.00;99.90;;;;;;5053092;28;20056;-78
2024/01/13 01:10:47;;;;;;;14.50;5.03;;;3.00;99.90;;;;;;5053081;28;20045;-78
2024/01/13 01:13:13;;;;;;;9.43;4.15;;;2.90;99.90;;;;;;5067013;28;20415;-76
2024/01/13 01:15:39;;;;;;;10.30;3.95;;;2.90;99.90;;;;;;5066256;28;20647;-78
2024/01/13 01:18:04;;;;;;;11.13;4.07;;;3.60;99.90;;;;;;5059262;28;20044;-78
2024/01/13 01:20:30;;;;;;;18.10;4.88;;;3.00;99.90;;;;;;5067989;28;20052;-78
2024/01/13 01:22:56;;;;;;;10.10;4.68;;;2.90;99.90;;;;;;5059436;28;20057;-78
2024/01/13 01:25:21;;;;;;;14.50;5.00;;;2.90;99.90;;;;;;5052304;28;20052;-78
2024/01/13 01:27:47;;;;;;;13.43;4.93;;;2.90;99.90;;;;;;5058627;28;20052;-78
2024/01/13 01:30:13;;;;;;;13.93;4.88;;;3.00;99.90;;;;;;5071709;28;20076;-78
2024/01/13 01:32:39;;;;;;;10.88;4.93;;;3.00;99.90;;;;;;5071347;28;20040;-78
2024/01/13 01:35:06;;;;;;;17.35;5.15;;;2.90;99.90;;;;;;5072962;28;20131;-77
2024/01/13 01:37:33;;;;;;;16.25;5.70;;;3.00;99.90;;;;;;5056222;28;20045;-78
2024/01/13 01:39:59;;;;;;;13.45;4.95;;;3.00;99.90;;;;;;5053167;28;20098;-78
2024/01/13 01:42:24;;;;;;;12.35;4.65;;;3.00;99.90;;;;;;5053262;28;20045;-78
2024/01/13 01:44:50;;;;;;;12.23;4.90;;;3.00;99.90;;;;;;5052255;28;20378;-78
2024/01/13 01:47:19;;;;;;;10.60;4.40;;;3.00;99.90;;;;;;5037896;28;20047;-77
2024/01/13 01:49:46;;;;;;;11.95;4.68;;;3.10;99.90;;;;;;5052566;28;20056;-78
2024/01/13 01:52:12;;;;;;;9.57;4.22;;;3.00;99.90;;;;;;5051673;28;20041;-77
2024/01/13 01:54:38;;;;;;;11.82;4.30;;;3.00;99.90;;;;;;5056435;28;20119;-77
2024/01/13 01:57:06;;;;;;;9.65;4.65;;;3.00;99.90;;;;;;5070604;28;20377;-78
2024/01/13 01:59:31;;;;;;;9.13;3.55;;;3.00;99.90;;;;;;5067798;28;20063;-78
2024/01/13 02:01:59;;;;;;;11.35;3.75;;;3.00;99.90;;;;;;5051714;28;20053;-78
2024/01/13 02:04:25;;;;;;;8.80;4.13;;;3.00;99.90;;;;;;5054517;28;20052;-78
2024/01/13 02:06:52;;;;;;;9.25;3.80;;;3.00;99.90;;;;;;5060018;28;20455;-78
2024/01/13 02:09:18;;;;;;;9.48;4.18;;;3.00;99.90;;;;;;5050978;28;20052;-78
2024/01/13 02:11:44;;;;;;;6.70;3.05;;;3.00;99.90;;;;;;5054181;28;20555;-78
2024/01/13 02:14:10;;;;;;;11.25;4.03;;;3.00;99.90;;;;;;5051173;28;20508;-78
2024/01/13 02:16:36;;;;;;;7.82;3.42;;;3.00;99.90;;;;;;5055000;28;20045;-76
2024/01/13 02:19:01;;;;;;;8.35;3.30;;;3.00;99.90;;;;;;5068809;28;20045;-79
2024/01/13 02:21:27;;;;;;;8.73;4.13;;;3.00;99.90;;;;;;5070747;28;20052;-78
2024/01/13 02:23:52;;;;;;;9.45;3.85;;;3.00;99.90;;;;;;5058628;28;20420;-78
2024/01/13 02:26:18;;;;;;;8.68;3.55;;;3.00;99.90;;;;;;5056280;28;20032;-78
2024/01/13 02:28:44;;;;;;;6.03;3.00;;;3.00;99.90;;;;;;5071816;28;20080;-78
2024/01/13 02:31:09;;;;;;;7.70;3.20;;;3.00;99.90;;;;;;5070632;28;20477;-78
2024/01/13 02:33:35;;;;;;;7.60;3.30;;;3.00;99.90;;;;;;5069212;28;20040;-78
2024/01/13 02:36:00;;;;;;;8.45;2.78;;;3.00;99.90;;;;;;5061504;28;20044;-78
2024/01/13 02:38:27;;;;;;;7.32;3.00;;;3.00;99.90;;;;;;5057223;28;20052;-78
2024/01/13 02:40:52;;;;;;;6.60;2.83;;;3.10;99.90;;;;;;5055838;28;20388;-78
2024/01/13 02:43:18;;;;;;;7.82;3.00;;;3.00;99.90;;;;;;5069176;28;20055;-79
2024/01/13 02:45:43;;;;;;;8.20;3.00;;;3.00;99.90;;;;;;5056760;28;20044;-78
2024/01/13 02:48:18;;;;;;;9.70;2.97;;;2.90;99.90;;;;;;5067468;28;20052;-78
2024/01/13 02:51:02;;;;;;;7.45;2.70;;;3.00;99.90;;;;;;5069549;28;20052;-78
2024/01/13 02:53:28;;;;;;;9.27;2.95;;;3.00;99.90;;;;;;5070434;28;20080;-78
2024/01/13 02:55:54;;;;;;;7.18;2.90;;;3.00;99.90;;;;;;5063333;28;20048;-77
2024/01/13 02:58:19;;;;;;;10.10;3.63;;;3.00;99.90;;;;;;5069243;28;20048;-79
2024/01/13 03:00:45;;;;;;;5.85;2.85;;;2.90;99.90;;;;;;5069569;28;20040;-78
2024/01/13 03:03:10;;;;;;;8.95;2.50;;;2.90;99.90;;;;;;5069818;28;20040;-78
2024/01/13 03:05:36;;;;;;;10.10;3.85;;;2.90;99.90;;;;;;5061893;28;20413;-77
2024/01/13 03:08:02;;;;;;;7.68;2.72;;;3.10;99.90;;;;;;5070377;28;20490;-78
2024/01/13 03:10:31;;;;;;;9.52;2.83;;;2.90;99.90;;;;;;5062236;28;20044;-77
2024/01/13 03:12:56;;;;;;;8.88;2.55;;;2.90;99.90;;;;;;5064071;28;20054;-77
2024/01/13 03:15:22;;;;;;;8.27;2.25;;;2.90;99.90;;;;;;5063119;28;20056;-78
2024/01/13 03:17:48;;;;;;;10.55;2.67;;;2.90;99.90;;;;;;5060786;28;20377;-78
2024/01/13 03:20:13;;;;;;;8.07;2.63;;;2.90;99.90;;;;;;5070084;28;20084;-77
2024/01/13 03:22:39;;;;;;;8.50;2.85;;;2.90;99.90;;;;;;5070685;28;20060;-78
2024/01/13 03:25:06;;;;;;;16.80;3.75;;;2.90;99.90;;;;;;5065662;28;20063;-77
2024/01/13 03:27:31;;;;;;;7.35;2.55;;;2.90;99.90;;;;;;5069549;28;20051;-78
2024/01/13 03:29:57;;;;;;;4.15;1.88;;;2.90;99.90;;;;;;5070084;28;20041;-77
2024/01/13 03:32:22;;;;;;;7.53;2.30;;;3.20;99.90;;;;;;5069265;28;20514;-78
2024/01/13 03:34:48;;;;;;;14.20;2.42;;;2.90;99.90;;;;;;5059970;28;20056;-77
2024/01/13 03:37:14;;;;;;;8.77;2.63;;;2.90;99.90;;;;;;5067977;28;20641;-77
2024/01/13 03:39:40;;;;;;;12.50;2.55;;;2.90;99.90;;;;;;5070885;28;20140;-78
2024/01/13 03:42:05;;;;;;;12.32;3.53;;;2.90;99.90;;;;;;5050974;28;20124;-77
2024/01/13 03:44:31;;;;;;;6.68;2.35;;;3.00;99.90;;;;;;5058232;28;20049;-77
2024/01/13 03:46:57;;;;;;;10.60;3.10;;;3.00;99.90;;;;;;5058933;28;20080;-78
2024/01/13 03:49:22;;;;;;;6.28;2.42;;;2.90;99.90;;;;;;5049150;28;20361;-78
2024/01/13 03:51:48;;;;;;;8.65;2.78;;;2.90;99.90;;;;;;5048608;28;20037;-78
2024/01/13 03:54:13;;;;;;;7.22;2.53;;;2.90;99.90;;;;;;5049733;28;20771;-77
2024/01/13 03:56:39;;;;;;;8.68;2.53;;;2.90;99.90;;;;;;5055938;28;20119;-78
2024/01/13 03:59:05;;;;;;;10.73;2.90;;;2.90;99.90;;;;;;5069641;28;20080;-78
2024/01/13 04:01:30;;;;;;;9.38;2.50;;;2.90;99.90;;;;;;5069406;28;20048;-78
2024/01/13 04:03:56;;;;;;;6.50;2.60;;;3.00;99.90;;;;;;5044997;28;20432;-78
2024/01/13 04:06:22;;;;;;;6.30;2.20;;;3.00;99.90;;;;;;5058579;28;20093;-78
2024/01/13 04:08:47;;;;;;;7.13;3.00;;;3.00;99.90;;;;;;5068433;28;20075;-78
2024/01/13 04:11:13;;;;;;;6.80;2.30;;;2.90;99.90;;;;;;5070351;28;20048;-77
2024/01/13 04:13:39;;;;;;;9.27;3.28;;;3.00;99.90;;;;;;5054464;28;20497;-78
2024/01/13 04:16:05;;;;;;;7.15;2.92;;;3.30;99.90;;;;;;5050611;28;20128;-78
2024/01/13 04:18:31;;;;;;;13.52;3.13;;;3.00;99.90;;;;;;5051123;28;20049;-78
2024/01/13 04:20:56;;;;;;;7.00;2.53;;;3.00;99.90;;;;;;5065198;28;20776;-77
2024/01/13 04:23:22;;;;;;;9.82;3.40;;;3.00;99.90;;;;;;5063890;28;20513;-78
2024/01/13 04:25:48;;;;;;;8.65;2.67;;;3.00;99.90;;;;;;5055433;28;20048;-79
2024/01/13 04:28:13;;;;;;;10.68;2.85;;;3.00;99.90;;;;;;5060283;28;20045;-76
2024/01/13 04:30:39;;;;;;;10.63;2.40;;;3.00;99.90;;;;;;5049424;28;20073;-78
2024/01/13 04:33:04;;;;;;;7.45;2.70;;;3.00;99.90;;;;;;5054061;28;20522;-78
2024/01/13 04:35:30;;;;;;;8.18;2.75;;;3.00;99.90;;;;;;5061712;28;20049;-78
2024/01/13 04:37:56;;;;;;;10.48;2.65;;;3.00;99.90;;;;;;5049750;28;20048;-77
2024/01/13 04:40:22;;;;;;;6.93;2.22;;;3.00;99.90;;;;;;5049277;28;20064;-78
2024/01/13 04:42:47;;;;;;;11.07;2.28;;;3.00;99.90;;;;;;5057925;28;20040;-77
2024/01/13 04:45:13;;;;;;;8.15;2.78;;;3.10;99.90;;;;;;5063169;28;20071;-78
2024/01/13 04:47:40;;;;;;;7.65;2.20;;;3.00;99.90;;;;;;5050504;28;20085;-78
2024/01/13 04:50:05;;;;;;;9.77;3.03;;;3.00;99.90;;;;;;5051945;28;20048;-77
2024/01/13 04:52:31;;;;;;;7.75;2.55;;;3.00;99.90;;;;;;5068388;28;20088;-78
2024/01/13 04:54:57;;;;;;;6.15;2.22;;;3.00;99.90;;;;;;5065632;28;20528;-78
2024/01/13 04:57:23;;;;;;;9.88;2.47;;;3.10;99.90;;;;;;5052281;28;20037;-78
2024/01/13 04:59:48;;;;;;;9.82;2.75;;;3.20;99.90;;;;;;5054339;28;20445;-78
2024/01/13 05:02:14;;;;;;;11.65;2.60;;;3.00;99.90;;;;;;5069991;28;20065;-77
2024/01/13 05:04:39;;;;;;;7.55;2.28;;;3.40;99.90;;;;;;5052089;28;20044;-77
2024/01/13 05:07:06;;;;;;;9.05;2.60;;;3.00;99.90;;;;;;5071770;28;20392;-77
2024/01/13 05:09:31;;;;;;;11.00;3.45;;;3.00;99.90;;;;;;5063322;28;20048;-78
2024/01/13 05:11:57;;;;;;;6.53;2.20;;;3.00;99.90;;;;;;5053226;28;20510;-78
2024/01/13 05:14:23;;;;;;;5.47;2.33;;;3.00;99.90;;;;;;5055936;28;20043;-79
2024/01/13 05:16:48;;;;;;;10.18;2.90;;;3.00;99.90;;;;;;5067009;28;20048;-78
2024/01/13 05:19:15;;;;;;;9.85;2.20;;;3.10;99.90;;;;;;5073107;28;20382;-77
2024/01/13 05:21:41;;;;;;;10.27;2.30;;;3.10;99.90;;;;;;5053156;28;20477;-77
2024/01/13 05:24:06;;;;;;;9.40;2.58;;;3.10;99.90;;;;;;5036458;28;20059;-78
2024/01/13 05:26:32;;;;;;;8.57;2.50;;;3.10;99.90;;;;;;5054574;28;20063;-78
2024/01/13 05:28:58;;;;;;;11.13;2.75;;;3.00;99.90;;;;;;5072378;28;20067;-78
2024/01/13 05:31:23;;;;;;;9.98;2.25;;;3.50;99.90;;;;;;5064161;28;20055;-76
2024/01/13 05:33:49;;;;;;;11.52;2.17;;;3.10;99.90;;;;;;5043707;28;20091;-78
2024/01/13 05:36:16;;;;;;;7.28;2.40;;;3.10;99.90;;;;;;5066197;28;20040;-78
2024/01/13 05:38:42;;;;;;;10.02;2.60;;;3.00;99.90;;;;;;5069482;28;20053;-78
2024/01/13 05:41:09;;;;;;;9.32;2.13;;;3.10;99.90;;;;;;5063294;28;20044;-78
2024/01/13 05:43:35;;;;;;;4.97;1.73;;;3.10;99.90;;;;;;5073027;28;20080;-77
2024/01/13 05:46:01;;;;;;;7.47;2.10;;;3.00;99.90;;;;;;5061055;28;20064;-78
2024/01/13 05:48:26;;;;;;;6.90;2.55;;;3.00;99.90;;;;;;5063322;28;20054;-77
2024/01/13 05:50:52;;;;;;;7.55;2.47;;;3.10;99.90;;;;;;5057003;28;20052;-79
2024/01/13 05:53:18;;;;;;;7.03;2.17;;;3.10;99.90;;;;;;5060325;28;20040;-78
2024/01/13 05:55:44;;;;;;;8.65;2.50;;;3.10;99.90;;;;;;5071633;28;20070;-77
2024/01/13 05:58:10;;;;;;;8.38;2.40;;;3.30;99.90;;;;;;5067839;28;20451;-78
2024/01/13 06:00:35;;;;;;;10.93;2.50;;;3.10;99.90;;;;;;5061818;28;20501;-77
2024/01/13 06:03:02;;;;;;;10.25;1.88;;;3.10;99.90;;;;;;5051674;28;20041;-78
2024/01/13 06:05:28;;;;;;;8.05;2.17;;;3.10;99.90;;;;;;5060105;28;20119;-78
2024/01/13 06:07:54;;;;;;;7.00;1.90;;;3.10;99.90;;;;;;5065956;28;20127;-77
2024/01/13 06:10:19;;;;;;;6.82;2.10;;;3.00;99.90;;;;;;5059038;28;20171;-76
2024/01/13 06:12:45;;;;;;;7.18;2.20;;;3.00;99.90;;;;;;5052298;28;20053;-77
2024/01/13 06:15:11;;;;;;;11.55;2.33;;;3.00;99.90;;;;;;5067061;28;20052;-76
2024/01/13 06:17:37;;;;;;;20.30;2.20;;;3.10;99.90;;;;;;5069103;28;20053;-75
2024/01/13 06:20:03;;;;;;;8.27;2.40;;;3.00;99.90;;;;;;5070008;28;20384;-78
2024/01/13 06:22:28;;;;;;;7.78;2.40;;;3.00;99.90;;;;;;5063892;28;20461;-77
2024/01/13 06:24:54;;;;;;;5.55;1.50;;;3.00;99.90;;;;;;5052883;28;20045;-79
2024/01/13 06:27:19;;;;;;;5.68;1.80;;;3.00;99.90;;;;;;5050907;28;20052;-78
2024/01/13 06:29:45;;;;;;;7.93;1.95;;;3.00;99.90;;;;;;5050894;28;20127;-76
2024/01/13 06:32:11;;;;;;;10.77;2.50;;;3.00;99.90;;;;;;5058042;28;20437;-76
2024/01/13 06:34:36;;;;;;;6.95;1.73;;;3.00;99.90;;;;;;5069905;28;20389;-76
2024/01/13 06:37:02;;;;;;;6.07;1.75;;;3.00;99.90;;;;;;5049424;28;20459;-78
2024/01/13 06:39:28;;;;;;;6.82;1.73;;;3.00;99.90;;;;;;5066032;28;20074;-77
2024/01/13 06:41:53;;;;;;;16.08;2.60;;;3.00;99.90;;;;;;5065996;28;20040;-76
2024/01/13 06:44:19;;;;;;;8.52;2.13;;;3.00;99.90;;;;;;5063642;28;20060;-77
2024/01/13 06:46:45;;;;;;;8.07;2.05;;;3.20;99.90;;;;;;5064812;28;20060;-77
2024/01/13 06:49:10;;;;;;;12.75;2.30;;;3.10;99.90;;;;;;5059971;28;20507;-78
2024/01/13 06:51:36;;;;;;;6.88;1.77;;;3.00;99.90;;;;;;5056012;28;20143;-78
2024/01/13 06:54:02;;;;;;;6.85;1.52;;;3.00;99.90;;;;;;5051015;28;20106;-78
2024/01/13 06:56:27;;;;;;;5.03;1.95;;;3.00;99.90;;;;;;5051738;28;20077;-77
2024/01/13 06:58:53;;;;;;;6.75;2.08;;;3.00;99.90;;;;;;5050047;28;20048;-77
2024/01/13 07:01:19;;;;;;;9.23;1.60;;;3.00;99.90;;;;;;5058602;28;20040;-76
2024/01/13 07:03:44;;;;;;;13.90;2.58;;;3.00;99.90;;;;;;5066464;28;20048;-78
2024/01/13 07:06:10;;;;;;;5.55;1.58;;;3.00;99.90;;;;;;5055639;28;20501;-77
2024/01/13 07:08:35;;;;;;;7.45;1.55;;;3.00;99.90;;;;;;5069309;28;20074;-77
2024/01/13 07:11:01;;;;;;;6.25;1.58;;;3.00;99.90;;;;;;5064764;28;20077;-80
2024/01/13 07:13:27;;;;;;;4.50;1.48;;;3.00;99.90;;;;;;5060672;28;20072;-85
2024/01/13 07:15:56;;;;;;;7.00;1.50;;;3.00;99.90;;;;;;5063103;28;20119;-81
2024/01/13 07:18:21;;;;;;;5.50;1.35;;;3.00;99.90;;;;;;5060175;28;20473;-77
2024/01/13 07:20:48;;;;;;;4.75;1.58;;;3.00;99.90;;;;;;5071414;28;20131;-78
2024/01/13 07:23:13;;;;;;;13.13;1.92;;;3.00;99.90;;;;;;5063947;28;20053;-78
2024/01/13 07:25:39;;;;;;;6.43;1.90;;;3.00;99.90;;;;;;5056735;28;20083;-77
2024/01/13 07:28:05;;;;;;;8.35;1.98;;;3.00;99.90;;;;;;5052888;28;20053;-79
2024/01/13 07:30:30;;;;;;;4.60;1.80;;;3.10;99.90;;;;;;5062664;28;20061;-77
2024/01/13 07:32:56;;;;;;;5.60;1.77;;;3.10;99.90;;;;;;5056206;28;20086;-77
2024/01/13 07:35:22;;;;;;;5.38;1.80;;;3.40;99.90;;;;;;5058565;28;20060;-76
2024/01/13 07:37:47;;;;;;;6.15;1.90;;;3.10;99.90;;;;;;5050239;28;20386;-76
2024/01/13 07:40:13;;;;;;;7.57;1.55;;;3.10;99.90;;;;;;5059834;28;20060;-77
2024/01/13 07:42:41;;;;;;;7.63;2.10;;;3.10;99.90;;;;;;5055623;28;20044;-78
2024/01/13 07:45:07;;;;;;;15.88;3.80;;;3.10;99.90;;;;;;5060242;28;20106;-78
2024/01/13 07:47:33;;;;;;;4.38;1.60;;;3.10;99.90;;;;;;5059848;28;20053;-77
2024/01/13 07:49:59;;;;;;;5.85;1.70;;;3.10;99.90;;;;;;5054181;28;20041;-78
2024/01/13 07:52:24;;;;;;;4.82;1.88;;;3.10;99.90;;;;;;5058319;28;20049;-78
2024/01/13 07:54:50;;;;;;;5.97;2.47;;;3.10;99.90;;;;;;5049531;28;20053;-78
2024/01/13 07:57:15;;;;;;;7.47;2.38;;;3.10;99.90;;;;;;5062294;28;20079;-76
2024/01/13 07:59:41;;;;;;;7.32;2.30;;;3.10;99.90;;;;;;5052013;28;20584;-77
2024/01/13 08:02:06;;;;;;;6.97;1.90;;;3.10;99.90;;;;;;5051685;28;20075;-77
2024/01/13 08:04:32;;;;;;;8.82;3.60;;;3.10;99.90;;;;;;5049996;28;20746;-78
2024/01/13 08:06:58;;;;;;;14.82;3.92;;;3.10;99.90;;;;;;5054139;28;20116;-79
2024/01/13 08:09:23;;;;;;;13.38;4.55;;;3.10;99.90;;;;;;5062502;28;20049;-77
2024/01/13 08:11:49;;;;;;;10.40;3.65;;;3.20;99.90;;;;;;5062357;28;20056;-77
2024/01/13 08:14:18;;;;;;;17.15;6.15;;;3.20;99.90;;;;;;5053626;28;20544;-76
2024/01/13 08:16:44;;;;;;;14.55;5.85;;;3.10;99.90;;;;;;5054707;28;20043;-77
2024/01/13 08:19:12;;;;;;;19.67;6.85;;;3.10;99.90;;;;;;5051703;28;20041;-78
2024/01/13 08:21:38;;;;;;;17.35;7.60;;;3.10;99.90;;;;;;5056882;28;20083;-78
2024/01/13 08:24:04;;;;;;;21.65;8.10;;;3.10;99.90;;;;;;5068351;28;20581;-75
2024/01/13 08:26:30;;;;;;;21.85;9.68;;;3.10;99.90;;;;;;5069995;28;20071;-77
2024/01/13 08:28:56;;;;;;;22.80;9.23;;;3.20;99.90;;;;;;5065355;28;20069;-79
2024/01/13 08:31:22;;;;;;;24.02;9.63;;;3.20;99.90;;;;;;5060171;28;20157;-78
2024/01/13 08:33:47;;;;;;;20.38;10.32;;;3.20;99.90;;;;;;5068979;28;20064;-78
2024/01/13 08:36:13;;;;;;;25.05;11.00;;;3.20;99.90;;;;;;5066988;28;20044;-78
2024/01/13 08:38:39;;;;;;;34.30;14.65;;;3.20;99.90;;;;;;5054429;28;20158;-78
2024/01/13 08:41:07;;;;;;;43.80;14.80;;;3.20;99.90;;;;;;5059023;28;21038;-78
2024/01/13 08:43:32;;;;;;;40.35;15.93;;;3.20;99.90;;;;;;5062596;28;20041;-79
2024/01/13 08:46:00;;;;;;;38.60;17.90;;;3.20;99.90;;;;;;5064059;28;20047;-78
2024/01/13 08:48:26;;;;;;;29.83;13.25;;;3.30;99.90;;;;;;5062684;28;20439;-78
2024/01/13 08:50:52;;;;;;;39.53;14.38;;;3.30;99.90;;;;;;5065674;28;20102;-78
2024/01/13 08:53:17;;;;;;;41.10;16.65;;;3.20;99.90;;;;;;5061132;28;20198;-78
2024/01/13 08:55:43;;;;;;;41.20;16.88;;;3.30;99.90;;;;;;5069531;28;20400;-78
2024/01/13 08:58:08;;;;;;;39.25;17.17;;;3.30;99.90;;;;;;5073080;28;20123;-79
2024/01/13 09:00:34;;;;;;;49.35;17.38;;;3.30;99.90;;;;;;5074017;28;20045;-82
2024/01/13 09:03:00;;;;;;;41.80;18.02;;;3.40;99.90;;;;;;5072809;28;20056;-85
2024/01/13 09:05:27;;;;;;;35.45;14.75;;;3.30;99.90;;;;;;5049459;28;20049;-84
2024/01/13 09:07:54;;;;;;;43.65;19.10;;;3.30;99.90;;;;;;5073411;28;20143;-84
2024/01/13 09:10:20;;;;;;;41.50;18.00;;;3.30;99.90;;;;;;5066633;28;20044;-85
2024/01/13 09:12:46;;;;;;;47.95;21.48;;;3.30;99.90;;;;;;5062302;28;20040;-91
2024/01/13 09:15:12;;;;;;;49.80;20.63;;;3.30;99.90;;;;;;5058526;28;20056;-92
2024/01/13 09:17:38;;;;;;;50.55;20.67;;;3.50;99.90;;;;;;5058024;28;20052;-90
2024/01/13 09:20:05;;;;;;;46.28;19.25;;;3.70;99.90;;;;;;5040692;28;20044;-84
2024/01/13 09:22:31;;;;;;;52.30;22.83;;;3.30;99.90;;;;;;5077393;28;20056;-88
2024/01/13 09:24:56;;;;;;;58.50;24.42;;;3.30;99.90;;;;;;5075372;28;20148;-85
2024/01/13 09:27:22;;;;;;;43.92;19.58;;;3.40;99.90;;;;;;5061099;28;20129;-80
2024/01/13 09:29:48;;;;;;;56.17;22.05;;;3.40;99.90;;;;;;5073255;28;20051;-78
2024/01/13 09:32:13;;;;;;;54.60;23.65;;;3.40;99.90;;;;;;5062700;28;20052;-78
2024/01/13 09:34:39;;;;;;;56.38;24.30;;;3.40;99.90;;;;;;5065820;28;20037;-77
2024/01/13 09:37:05;;;;;;;52.35;23.15;;;3.40;99.90;;;;;;5070926;28;20052;-77
2024/01/13 09:39:31;;;;;;;55.33;24.63;;;3.40;99.90;;;;;;5066824;28;20115;-77
2024/01/13 09:41:58;;;;;;;63.80;24.88;;;3.30;99.90;;;;;;5051334;28;20060;-78
2024/01/13 09:44:26;;;;;;;64.05;27.25;;;3.30;99.90;;;;;;5072177;28;20174;-76
2024/01/13 09:46:53;;;;;;;61.40;27.70;;;3.40;99.90;;;;;;5064609;28;20451;-77
2024/01/13 09:49:20;;;;;;;58.58;24.15;;;3.40;99.90;;;;;;5062246;28;20056;-77
2024/01/13 09:51:47;;;;;;;64.60;27.30;;;3.40;99.90;;;;;;5069268;28;20043;-76
2024/01/13 09:54:23;;;;;;;72.20;30.30;;;3.60;99.90;;;;;;5065548;28;20047;-76
2024/01/13 09:56:49;;;;;;;68.40;30.63;;;3.40;99.90;;;;;;5067584;28;20063;-76
2024/01/13 09:59:16;;;;;;;65.40;28.65;;;3.40;99.90;;;;;;5072656;28;20051;-75
2024/01/13 10:01:42;;;;;;;66.63;27.83;;;3.40;99.90;;;;;;5070799;28;20098;-76
2024/01/13 10:04:08;;;;;;;63.58;27.08;;;3.80;99.90;;;;;;5069300;28;20068;-75
2024/01/13 10:06:35;;;;;;;62.28;28.75;;;3.50;99.90;;;;;;5070337;28;20068;-76
2024/01/13 10:09:02;;;;;;;73.00;29.65;;;3.40;99.90;;;;;;5066452;28;20033;-76
2024/01/13 10:11:30;;;;;;;67.05;29.35;;;3.50;99.90;;;;;;5058782;28;20040;-76
2024/01/13 10:14:04;;;;;;;71.40;29.58;;;3.80;99.90;;;;;;5071915;28;20048;-75
2024/01/13 10:16:31;;;;;;;64.05;26.90;;;3.50;99.90;;;;;;5067330;28;20503;-77
2024/01/13 10:19:08;;;;;;;59.53;28.02;;;3.50;99.90;;;;;;5070777;28;20071;-75
2024/01/13 10:21:35;;;;;;;57.97;28.58;;;3.50;99.90;;;;;;5063602;28;20064;-75
2024/01/13 10:24:02;;;;;;;58.38;27.25;;;3.50;99.90;;;;;;5072119;28;20736;-75
2024/01/13 10:26:29;;;;;;;65.55;27.65;;;3.50;99.90;;;;;;5071469;28;20123;-75
2024/01/13 10:28:56;;;;;;;63.30;30.00;;;3.50;99.90;;;;;;5070247;28;20041;-76
2024/01/13 10:31:23;;;;;;;58.17;26.70;;;3.50;99.90;;;;;;5070679;28;20542;-76
2024/01/13 10:33:49;;;;;;;58.17;27.85;;;3.50;99.90;;;;;;5061444;28;20037;-75
2024/01/13 10:36:16;;;;;;;58.47;27.55;;;3.60;99.90;;;;;;5064357;28;20135;-79
2024/01/13 10:38:43;;;;;;;54.33;26.25;;;3.60;99.90;;;;;;5061519;28;20131;-76
2024/01/13 10:41:11;;;;;;;60.17;26.42;;;3.50;99.90;;;;;;5064003;28;20455;-75
2024/01/13 10:43:40;;;;;;;65.53;27.83;;;3.60;99.90;;;;;;5051972;28;20041;-76
2024/01/13 10:46:10;;;;;;;60.13;27.38;;;3.60;99.90;;;;;;5051745;28;20045;-75
2024/01/13 10:48:45;;;;;;;60.80;25.42;;;3.60;99.90;;;;;;5059801;28;20045;-75
2024/01/13 10:51:33;;;;;;;58.58;27.17;;;3.60;99.90;;;;;;5057356;28;20147;-76
2024/01/13 10:54:00;;;;;;;62.45;26.95;;;3.60;99.90;;;;;;5050668;28;20552;-76
2024/01/13 10:56:30;;;;;;;52.17;25.33;;;3.60;99.90;;;;;;5051574;28;20052;-75
2024/01/13 10:58:59;;;;;;;52.17;24.45;;;3.60;99.90;;;;;;5050623;28;20041;-76
2024/01/13 11:01:25;;;;;;;57.03;25.05;;;3.60;99.90;;;;;;5060860;28;20067;-76
2024/01/13 11:03:53;;;;;;;52.83;24.77;;;3.60;99.90;;;;;;5066360;28;20052;-76
2024/01/13 11:06:23;;;;;;;62.78;23.48;;;3.60;99.90;;;;;;5052412;28;20102;-82
2024/01/13 11:08:48;;;;;;;49.63;23.40;;;3.70;99.90;;;;;;5060478;28;20042;-76
2024/01/13 11:11:20;;;;;;;55.80;23.33;;;3.70;99.90;;;;;;5065977;28;20460;-78
2024/01/13 11:13:51;;;;;;;48.97;24.38;;;3.70;99.90;;;;;;5050631;28;20378;-77
2024/01/13 11:16:21;;;;;;;49.72;23.23;;;3.70;99.90;;;;;;5050412;28;20086;-76
2024/01/13 11:18:52;;;;;;;51.80;22.08;;;3.70;99.90;;;;;;5051503;28;20052;-76
2024/01/13 11:21:17;;;;;;;48.65;22.92;;;3.80;99.90;;;;;;5054962;28;20454;-76
2024/01/13 11:23:56;;;;;;;48.83;23.05;;;4.00;99.90;;;;;;5070697;28;20053;-76
2024/01/13 11:26:36;;;;;;;53.63;22.35;;;3.80;99.90;;;;;;5062997;28;20056;-76
2024/01/13 11:29:14;;;;;;;42.70;21.08;;;3.80;99.90;;;;;;5053405;28;20044;-76
2024/01/13 11:31:41;;;;;;;49.58;22.60;;;4.40;99.90;;;;;;5056778;28;20391;-76
2024/01/13 11:34:11;;;;;;;43.13;20.50;;;3.90;99.90;;;;;;5060639;28;20037;-76
2024/01/13 11:36:43;;;;;;;45.33;21.45;;;3.90;99.90;;;;;;5051241;28;20045;-76
2024/01/13 11:39:09;;;;;;;45.08;21.13;;;4.00;99.90;;;;;;5052284;28;20056;-76
2024/01/13 11:41:49;;;;;;;39.92;19.70;;;4.00;99.90;;;;;;5056396;28;20041;-76
2024/01/13 11:44:23;;;;;;;42.80;20.80;;;4.00;99.90;;;;;;5051199;28;20043;-76
2024/01/13 11:47:12;;;;;;;44.88;20.85;;;4.00;99.90;;;;;;5068078;28;20442;-77
2024/01/13 11:49:38;;;;;;;45.92;21.15;;;4.00;99.90;;;;;;5059052;28;20103;-76
2024/01/13 11:52:14;;;;;;;43.92;20.15;;;4.00;99.90;;;;;;5060596;28;20044;-76
2024/01/13 11:54:41;;;;;;;53.13;19.67;;;4.00;99.90;;;;;;5057477;28;20049;-77
2024/01/13 11:57:11;;;;;;;44.08;18.50;;;4.00;99.90;;;;;;5051102;28;20463;-79
2024/01/13 11:59:37;;;;;;;37.35;18.83;;;4.00;99.90;;;;;;5060074;28;20056;-79
2024/01/13 12:02:04;;;;;;;39.00;19.60;;;4.00;99.90;;;;;;5054092;28;20548;-78
2024/01/13 12:04:31;;;;;;;42.78;19.63;;;4.00;99.90;;;;;;5070006;28;20079;-81
2024/01/13 12:06:57;;;;;;;42.40;18.77;;;4.10;99.90;;;;;;5074810;28;20048;-81
2024/01/13 12:09:28;;;;;;;39.58;17.70;;;4.10;99.90;;;;;;5068461;28;20048;-78
2024/01/13 12:11:58;;;;;;;38.50;19.20;;;4.00;99.90;;;;;;5053591;28;20053;-80
2024/01/13 12:14:32;;;;;;;39.53;17.67;;;4.10;99.90;;;;;;5054465;28;20040;-76
2024/01/13 12:17:00;;;;;;;38.15;17.95;;;4.10;99.90;;;;;;5065848;28;20052;-76
2024/01/13 12:19:27;;;;;;;41.25;18.70;;;4.10;99.90;;;;;;5065989;28;20058;-76
2024/01/13 12:21:53;;;;;;;34.38;16.33;;;4.00;99.90;;;;;;5061366;28;20057;-76
2024/01/13 12:24:26;;;;;;;33.92;17.23;;;4.00;99.90;;;;;;5062787;28;20099;-76
2024/01/13 12:26:53;;;;;;;37.50;17.27;;;4.10;99.90;;;;;;5056616;28;20056;-77
2024/01/13 12:29:19;;;;;;;34.47;17.05;;;4.10;99.90;;;;;;5056511;28;20578;-76
2024/01/13 12:31:45;;;;;;;37.25;16.75;;;4.10;99.90;;;;;;5054870;28;20057;-77
2024/01/13 12:34:12;;;;;;;37.08;16.35;;;4.10;99.90;;;;;;5059955;28;20087;-76
2024/01/13 12:36:38;;;;;;;38.08;16.65;;;4.10;99.90;;;;;;5070670;28;20041;-75
2024/01/13 12:39:05;;;;;;;29.75;13.55;;;4.10;99.90;;;;;;5055793;28;20072;-77
2024/01/13 12:41:31;;;;;;;32.72;14.85;;;4.10;99.90;;;;;;5066630;28;20053;-76
2024/01/13 12:44:03;;;;;;;32.30;12.68;;;4.10;99.90;;;;;;5061637;28;20045;-76